| time (UTC) | temp C | wind direction | speed KPH | gust KPH | rain 1hr cm | rain 24hr cm | rain mn cm | humidity % | barometer mb |
| 20260507141622 | -17 | 315 | 6.4 | 17.7 | 0.00 | 0.00 | 0.00 | 1 | 1011.5 |
| 20260507140558 | -17 | 315 | 6.4 | 12.9 | 0.00 | 0.00 | 0.00 | 1 | 1011.6 |
| 20260507135554 | -17 | 315 | 4.8 | 12.9 | 0.00 | 0.00 | 0.00 | 1 | 1011.7 |
| 20260507134548 | -17 | 315 | 8.0 | 17.7 | 0.00 | 0.00 | 0.00 | 1 | 1011.9 |
| 20260507133603 | -17 | 315 | 6.4 | 24.1 | 0.00 | 0.00 | 0.00 | 1 | 1011.8 |
| 20260507132558 | -17 | 315 | 8.0 | 17.7 | 0.00 | 0.00 | 0.00 | 1 | 1011.7 |
| 20260507131533 | -17 | 315 | 8.0 | 17.7 | 0.00 | 0.00 | 0.00 | 1 | 1012.0 |
| 20260507130527 | -17 | 315 | 8.0 | 22.5 | 0.00 | 0.00 | 0.00 | 1 | 1012.0 |
| 20260507125542 | -17 | 315 | 9.7 | 24.1 | 0.00 | 0.00 | 0.00 | 1 | 1012.1 |
| 20260507124516 | -17 | 315 | 6.4 | 22.5 | 0.00 | 0.00 | 0.00 | 1 | 1012.0 |
| 20260507123610 | -17 | 315 | 8.0 | 17.7 | 0.00 | 0.00 | 0.00 | 1 | 1012.1 |
| 20260507122604 | -17 | 315 | 8.0 | 14.5 | 0.00 | 0.00 | 0.00 | 1 | 1012.2 |
| 20260507121557 | -17 | 315 | 8.0 | 24.1 | 0.00 | 0.00 | 0.00 | 1 | 1012.2 |
| 20260507120552 | -17 | 315 | 9.7 | 17.7 | 0.00 | 0.00 | 0.00 | 1 | 1012.2 |
| 20260507115548 | -17 | 315 | 4.8 | 11.3 | 0.00 | 0.00 | 0.00 | 1 | 1012.2 |
| 20260507114541 | -17 | 315 | 6.4 | 14.5 | 0.00 | 0.00 | 0.00 | 1 | 1012.2 |
| 20260507113536 | -17 | 315 | 4.8 | 9.7 | 0.00 | 0.00 | 0.00 | 1 | 1012.3 |
| 20260507112530 | -17 | 315 | 4.8 | 12.9 | 0.00 | 0.00 | 0.00 | 1 | 1012.4 |
| 20260507111526 | -17 | 315 | 3.2 | 11.3 | 0.00 | 0.00 | 0.00 | 1 | 1012.6 |
| 20260507110519 | -17 | 315 | 4.8 | 14.5 | 0.00 | 0.00 | 0.00 | 1 | 1012.7 |
| 20260507105515 | -17 | 315 | 6.4 | 14.5 | 0.00 | 0.00 | 0.00 | 1 | 1012.8 |
| 20260507104611 | -17 | 315 | 4.8 | 11.3 | 0.00 | 0.00 | 0.00 | 1 | 1012.7 |
| 20260507103605 | -17 | 315 | 3.2 | 11.3 | 0.00 | 0.00 | 0.00 | 1 | 1012.9 |
| 20260507102601 | -17 | 315 | 3.2 | 9.7 | 0.00 | 0.00 | 0.00 | 1 | 1013.0 |
| 20260507101556 | -17 | 315 | 4.8 | 11.3 | 0.00 | 0.00 | 0.00 | 1 | 1013.1 |
| 20260507100550 | -17 | 315 | 1.6 | 6.4 | 0.00 | 0.00 | 0.00 | 1 | 1013.2 |
| 20260507095544 | -17 | 315 | 8.0 | 14.5 | 0.00 | 0.00 | 0.00 | 1 | 1013.2 |
| 20260507094541 | -17 | 315 | 3.2 | 9.7 | 0.00 | 0.00 | 0.00 | 1 | 1013.2 |
| 20260507093535 | -17 | 315 | 3.2 | 14.5 | 0.00 | 0.00 | 0.00 | 1 | 1013.4 |
| 20260507092530 | -17 | 315 | 1.6 | 6.4 | 0.00 | 0.00 | 0.00 | 1 | 1013.3 |
| 20260507091526 | -17 | 315 | 1.6 | 6.4 | 0.00 | 0.00 | 0.00 | 1 | 1013.3 |
| 20260507090520 | -17 | 315 | 4.8 | 11.3 | 0.00 | 0.00 | 0.00 | 1 | 1013.0 |
| 20260507085535 | -17 | 315 | 3.2 | 6.4 | 0.00 | 0.00 | 0.00 | 1 | 1013.1 |
| 20260507084610 | -17 | 315 | 4.8 | 11.3 | 0.00 | 0.00 | 0.00 | 1 | 1013.1 |
| 20260507083605 | -17 | 315 | 6.4 | 12.9 | 0.00 | 0.00 | 0.00 | 1 | 1013.2 |
| 20260507082600 | -17 | 315 | 3.2 | 11.3 | 0.00 | 0.00 | 0.00 | 1 | 1013.2 |
| 20260507081555 | -17 | 315 | 6.4 | 14.5 | 0.00 | 0.00 | 0.00 | 1 | 1013.3 |
| 20260507080629 | -17 | 315 | 3.2 | 11.3 | 0.00 | 0.00 | 0.00 | 1 | 1013.4 |
| 20260507075544 | -17 | 315 | 1.6 | 6.4 | 0.00 | 0.00 | 0.00 | 1 | 1013.4 |
| 20260507074539 | -17 | 315 | 3.2 | 9.7 | 0.00 | 0.00 | 0.00 | 1 | 1013.5 |
| 20260507073534 | -17 | 315 | 1.6 | 6.4 | 0.00 | 0.00 | 0.00 | 1 | 1013.6 |
| 20260507072527 | -17 | 315 | 3.2 | 6.4 | 0.00 | 0.00 | 0.00 | 1 | 1013.6 |
| 20260507071521 | -17 | 315 | 3.2 | 9.7 | 0.00 | 0.00 | 0.00 | 1 | 1013.5 |
| 20260507070616 | -17 | 315 | 0.0 | 3.2 | 0.00 | 0.00 | 0.00 | 1 | 1013.5 |
| 20260507065609 | -17 | 315 | 1.6 | 6.4 | 0.00 | 0.00 | 0.00 | 1 | 1013.2 |
| 20260507064606 | -17 | 315 | 1.6 | 6.4 | 0.00 | 0.00 | 0.00 | 1 | 1013.0 |
| 20260507063559 | -17 | 315 | 1.6 | 3.2 | 0.00 | 0.00 | 0.00 | 1 | 1013.1 |
| 20260507062554 | -17 | 315 | 1.6 | 3.2 | 0.00 | 0.00 | 0.00 | 1 | 1012.9 |
| 20260507061547 | -17 | 315 | 1.6 | 3.2 | 0.00 | 0.00 | 0.00 | 1 | 1012.7 |
| 20260507060543 | -17 | 0.0 | 0.0 | 0.00 | 0.00 | 0.00 | 1 | 1012.7 | |
| 20260507055537 | -17 | 315 | 0.0 | 3.2 | 0.00 | 0.00 | 0.00 | 1 | 1012.7 |
| 20260507054533 | -17 | 315 | 0.0 | 3.2 | 0.00 | 0.00 | 0.00 | 1 | 1012.6 |
| 20260507053527 | -17 | 0.0 | 0.0 | 0.00 | 0.00 | 0.00 | 1 | 1012.6 | |
| 20260507052520 | -17 | 315 | 0.0 | 3.2 | 0.00 | 0.00 | 0.00 | 1 | 1012.4 |
| 20260507051535 | -17 | 315 | 1.6 | 3.2 | 0.00 | 0.00 | 0.00 | 1 | 1012.3 |
| 20260507050610 | -17 | 315 | 1.6 | 3.2 | 0.00 | 0.00 | 0.00 | 1 | 1012.2 |
| 20260507045606 | -17 | 315 | 0.0 | 3.2 | 0.00 | 0.00 | 0.00 | 1 | 1012.2 |
| 20260507044559 | -17 | 0.0 | 0.0 | 0.00 | 0.00 | 0.00 | 1 | 1012.1 | |
| 20260507043555 | -17 | 315 | 1.6 | 3.2 | 0.00 | 0.00 | 0.00 | 1 | 1012.2 |
| 20260507042548 | -17 | 315 | 1.6 | 3.2 | 0.00 | 0.00 | 0.00 | 1 | 1012.2 |
| 20260507041542 | -17 | 315 | 1.6 | 3.2 | 0.00 | 0.00 | 0.00 | 1 | 1012.3 |
| 20260507040539 | -17 | 315 | 1.6 | 3.2 | 0.00 | 0.00 | 0.00 | 1 | 1012.4 |
| 20260507035554 | -17 | 315 | 1.6 | 3.2 | 0.00 | 0.00 | 0.00 | 1 | 1012.3 |
| 20260507034549 | -17 | 0.0 | 3.2 | 0.00 | 0.00 | 0.00 | 1 | 1012.2 | |
| 20260507033522 | -17 | 0.0 | 0.0 | 0.00 | 0.00 | 0.00 | 1 | 1012.3 | |
| 20260507032537 | -17 | 315 | 0.0 | 3.2 | 0.00 | 0.00 | 0.00 | 1 | 1012.4 |
| 20260507031632 | -17 | 0.0 | 0.0 | 0.00 | 0.00 | 0.00 | 1 | 1012.4 | |
| 20260507030607 | -17 | 0.0 | 3.2 | 0.00 | 0.00 | 0.00 | 1 | 1012.3 | |
| 20260507025623 | -17 | 315 | 1.6 | 3.2 | 0.00 | 0.00 | 0.00 | 1 | 1012.4 |
| 20260507024558 | -17 | 315 | 1.6 | 6.4 | 0.00 | 0.00 | 0.00 | 1 | 1012.2 |
| 20260507023551 | -17 | 315 | 3.2 | 9.7 | 0.00 | 0.00 | 0.00 | 1 | 1012.2 |
| 20260507022546 | -17 | 315 | 3.2 | 6.4 | 0.00 | 0.00 | 0.00 | 1 | 1012.2 |
| 20260507021541 | -17 | 315 | 3.2 | 6.4 | 0.00 | 0.00 | 0.00 | 1 | 1012.3 |
| 20260507020537 | -17 | 315 | 3.2 | 6.4 | 0.00 | 0.00 | 0.00 | 1 | 1012.2 |
| 20260507015531 | -17 | 315 | 3.2 | 6.4 | 0.00 | 0.00 | 0.00 | 1 | 1012.3 |
| 20260507014547 | -17 | 315 | 4.8 | 11.3 | 0.00 | 0.00 | 0.00 | 1 | 1012.6 |
| 20260507013545 | -17 | 315 | 4.8 | 9.7 | 0.00 | 0.00 | 0.00 | 1 | 1012.6 |
| 20260507012519 | -17 | 315 | 6.4 | 9.7 | 0.00 | 0.00 | 0.00 | 1 | 1012.5 |
| 20260507011612 | -17 | 315 | 4.8 | 9.7 | 0.00 | 0.00 | 0.00 | 1 | 1012.4 |
| 20260507010608 | -17 | 315 | 6.4 | 11.3 | 0.00 | 0.00 | 0.00 | 1 | 1012.5 |
| 20260507005601 | -17 | 315 | 4.8 | 11.3 | 0.00 | 0.00 | 0.00 | 1 | 1012.6 |
| 20260507004558 | -17 | 315 | 4.8 | 9.7 | 0.00 | 0.00 | 0.00 | 1 | 1012.8 |
| 20260507003552 | -17 | 315 | 4.8 | 6.4 | 0.00 | 0.00 | 0.00 | 1 | 1012.7 |
| 20260507002547 | -17 | 315 | 3.2 | 6.4 | 0.00 | 0.00 | 0.00 | 1 | 1012.7 |
| 20260507001542 | -17 | 315 | 4.8 | 11.3 | 0.00 | 0.00 | 0.00 | 1 | 1012.8 |
| 20260507000538 | -17 | 315 | 4.8 | 6.4 | 0.00 | 0.00 | 0.00 | 1 | 1012.9 |
| 20260506235533 | -17 | 315 | 4.8 | 11.3 | 0.00 | 0.00 | 0.00 | 1 | 1013.0 |
| 20260506234528 | -17 | 315 | 4.8 | 11.3 | 0.00 | 0.00 | 0.00 | 1 | 1012.9 |
| 20260506233523 | -17 | 315 | 4.8 | 12.9 | 0.00 | 0.00 | 0.00 | 1 | 1012.9 |
| 20260506232538 | -17 | 315 | 6.4 | 9.7 | 0.00 | 0.00 | 0.00 | 1 | 1012.8 |
| 20260506231612 | -17 | 315 | 4.8 | 9.7 | 0.00 | 0.00 | 0.00 | 1 | 1013.0 |
| 20260506230607 | -17 | 5 | 4.8 | 9.7 | 0.00 | 0.00 | 0.00 | 1 | 1013.0 |
| 20260506225603 | -17 | 349 | 6.4 | 11.3 | 0.00 | 0.00 | 0.00 | 1 | 1012.9 |
| 20260506224555 | 13 | 34 | 8.0 | 11.3 | 0.00 | 0.00 | 0.00 | 27 | 1012.8 |
| 20260506223551 | 13 | 35 | 4.8 | 9.7 | 0.00 | 0.00 | 0.00 | 77 | 1012.9 |
| 20260506222547 | 13 | 34 | 3.2 | 6.4 | 0.00 | 0.00 | 0.00 | 77 | 1012.9 |
| 20260506221539 | 13 | 347 | 3.2 | 6.4 | 0.00 | 0.00 | 0.00 | 77 | 1012.9 |
| 20260506220533 | 13 | 349 | 1.6 | 3.2 | 0.00 | 0.00 | 0.00 | 76 | 1012.8 |
| 20260506215525 | 13 | 63 | 1.6 | 6.4 | 0.00 | 0.00 | 0.00 | 76 | 1012.8 |
| 20260506214521 | 13 | 344 | 1.6 | 6.4 | 0.00 | 0.00 | 0.00 | 76 | 1012.7 |
| 20260506213616 | 13 | 54 | 3.2 | 6.4 | 0.00 | 0.00 | 0.00 | 75 | 1012.7 |
| 20260506212610 | 13 | 57 | 6.4 | 9.7 | 0.00 | 0.00 | 0.00 | 75 | 1012.8 |
| 20260506211626 | 14 | 31 | 4.8 | 11.3 | 0.00 | 0.00 | 0.00 | 74 | 1012.8 |
| 20260506210600 | 14 | 82 | 4.8 | 6.4 | 0.00 | 0.00 | 0.00 | 72 | 1012.7 |
| 20260506205553 | 14 | 93 | 1.6 | 6.4 | 0.00 | 0.00 | 0.00 | 71 | 1012.7 |
| 20260506204548 | 14 | 90 | 1.6 | 3.2 | 0.00 | 0.00 | 0.00 | 70 | 1012.4 |
| 20260506203542 | 14 | 87 | 1.6 | 6.4 | 0.00 | 0.00 | 0.00 | 70 | 1012.3 |
| 20260506202537 | 14 | 101 | 4.8 | 9.7 | 0.00 | 0.00 | 0.00 | 70 | 1012.1 |
| 20260506201530 | 15 | 79 | 3.2 | 9.7 | 0.00 | 0.00 | 0.00 | 70 | 1012.0 |
| 20260506200542 | 15 | 94 | 1.6 | 6.4 | 0.00 | 0.00 | 0.00 | 70 | 1012.0 |
| 20260506195518 | 15 | 110 | 3.2 | 6.4 | 0.00 | 0.00 | 0.00 | 69 | 1011.7 |
| 20260506194615 | 15 | 99 | 3.2 | 6.4 | 0.00 | 0.00 | 0.00 | 70 | 1011.6 |
| 20260506193609 | 15 | 100 | 3.2 | 11.3 | 0.00 | 0.00 | 0.00 | 68 | 1011.4 |
| 20260506192604 | 15 | 89 | 4.8 | 11.3 | 0.00 | 0.00 | 0.00 | 67 | 1011.2 |
| 20260506191557 | 15 | 93 | 6.4 | 14.5 | 0.00 | 0.00 | 0.00 | 67 | 1011.1 |
| 20260506190552 | 15 | 82 | 6.4 | 11.3 | 0.00 | 0.00 | 0.00 | 66 | 1011.0 |
| 20260506185547 | 15 | 87 | 8.0 | 12.9 | 0.00 | 0.00 | 0.00 | 65 | 1010.9 |
| 20260506184542 | 16 | 113 | 6.4 | 14.5 | 0.00 | 0.00 | 0.00 | 64 | 1010.7 |
| 20260506183534 | 16 | 90 | 6.4 | 12.9 | 0.00 | 0.00 | 0.00 | 63 | 1010.5 |
| 20260506182529 | 16 | 113 | 6.4 | 14.5 | 0.00 | 0.00 | 0.00 | 62 | 1010.4 |
| 20260506181543 | 16 | 113 | 9.7 | 17.7 | 0.00 | 0.00 | 0.00 | 61 | 1010.4 |
| 20260506180518 | 17 | 113 | 8.0 | 17.7 | 0.00 | 0.00 | 0.00 | 58 | 1010.2 |
| 20260506175610 | 17 | 100 | 6.4 | 17.7 | 0.00 | 0.00 | 0.00 | 57 | 1010.1 |
| 20260506174605 | 17 | 91 | 9.7 | 22.5 | 0.00 | 0.00 | 0.00 | 55 | 1010.0 |
| 20260506173600 | 18 | 107 | 3.2 | 11.3 | 0.00 | 0.00 | 0.00 | 49 | 1009.8 |
| 20260506172556 | 19 | 168 | 1.6 | 6.4 | 0.00 | 0.00 | 0.00 | 47 | 1009.8 |
| 20260506171548 | 19 | 104 | 1.6 | 6.4 | 0.00 | 0.03 | 0.00 | 47 | 1009.7 |
| 20260506170543 | 18 | 159 | 1.6 | 3.2 | 0.00 | 0.03 | 0.00 | 48 | 1009.7 |
| 20260506165538 | 18 | 114 | 1.6 | 6.4 | 0.00 | 0.03 | 0.00 | 50 | 1009.6 |
| 20260506164530 | 18 | 114 | 4.8 | 17.7 | 0.00 | 0.05 | 0.00 | 50 | 1009.7 |
| 20260506163525 | 18 | 126 | 1.6 | 6.4 | 0.00 | 0.05 | 0.00 | 50 | 1009.6 |
| 20260506162540 | 18 | 19 | 3.2 | 6.4 | 0.00 | 0.05 | 0.00 | 50 | 1009.5 |
| 20260506161615 | 19 | 92 | 4.8 | 9.7 | 0.00 | 0.13 | 0.00 | 48 | 1009.4 |
| 20260506160607 | 20 | 119 | 4.8 | 9.7 | 0.00 | 0.13 | 0.00 | 47 | 1009.4 |
| 20260506155603 | 20 | 138 | 3.2 | 9.7 | 0.00 | 0.43 | 0.00 | 47 | 1009.3 |
| 20260506154556 | 20 | 175 | 3.2 | 11.3 | 0.00 | 0.97 | 0.00 | 47 | 1009.2 |
| 20260506153551 | 20 | 267 | 3.2 | 9.7 | 0.00 | 0.97 | 0.00 | 46 | 1009.2 |
| 20260506152603 | 20 | 151 | 4.8 | 11.3 | 0.00 | 0.97 | 0.00 | 43 | 1009.4 |
| 20260506151539 | 21 | 106 | 3.2 | 11.3 | 0.00 | 0.97 | 0.00 | 44 | 1009.4 |
| 20260506150534 | 21 | 90 | 3.2 | 6.4 | 0.00 | 0.97 | 0.00 | 42 | 1009.5 |
| 20260506145527 | 21 | 161 | 4.8 | 12.9 | 0.00 | 0.97 | 0.00 | 42 | 1009.3 |
| 20260506144541 | 20 | 9 | 3.2 | 9.7 | 0.00 | 0.97 | 0.00 | 42 | 1009.4 |
| 20260506143637 | 20 | 285 | 6.4 | 20.9 | 0.00 | 0.97 | 0.00 | 42 | 1009.8 |
| 20260506142610 | 21 | 0 | 4.8 | 14.5 | 0.00 | 0.97 | 0.00 | 41 | 1009.6 |